createdAt,value
2023-02-16T00:00:37.958Z,70.60
2023-02-16T00:03:15.752Z,175.65
2023-02-16T00:05:46.586Z,170.05
2023-02-16T00:08:17.461Z,116.67
2023-02-16T00:10:50.010Z,86.65
2023-02-16T00:13:44.245Z,71.40
2023-02-16T00:16:22.301Z,116.62
2023-02-16T00:18:53.921Z,88.58
2023-02-16T00:21:24.501Z,71.35
2023-02-16T00:23:55.011Z,70.87
2023-02-16T00:26:28.526Z,68.20
2023-02-16T00:29:02.114Z,65.95
2023-02-16T00:31:33.052Z,69.12
2023-02-16T00:34:25.319Z,66.33
2023-02-16T00:36:56.774Z,64.97
2023-02-16T00:39:28.879Z,68.55
2023-02-16T00:42:05.607Z,100.65
2023-02-16T00:44:46.380Z,77.42
2023-02-16T00:47:24.735Z,67.67
2023-02-16T00:49:57.112Z,65.72
2023-02-16T00:52:43.888Z,64.20
2023-02-16T00:55:20.643Z,64.47
2023-02-16T00:58:00.010Z,65.30
2023-02-16T01:00:33.236Z,65.03
2023-02-16T01:03:06.721Z,65.65
2023-02-16T01:05:37.815Z,66.30
2023-02-16T01:08:41.855Z,66.70
2023-02-16T01:11:16.426Z,67.75
2023-02-16T01:13:50.153Z,70.28
2023-02-16T01:16:26.590Z,67.45
2023-02-16T01:18:57.425Z,66.42
2023-02-16T01:21:28.311Z,69.47
2023-02-16T01:23:59.178Z,70.42
2023-02-16T01:26:33.441Z,73.47
2023-02-16T01:29:04.192Z,71.10
2023-02-16T01:31:34.961Z,67.55
2023-02-16T01:34:05.881Z,74.42
2023-02-16T01:36:39.119Z,71.45
2023-02-16T01:39:11.224Z,71.70
2023-02-16T01:41:53.670Z,71.28
2023-02-16T01:44:30.122Z,72.97
2023-02-16T01:47:19.974Z,74.37
2023-02-16T01:49:50.742Z,73.70
2023-02-16T01:52:33.476Z,72.17
2023-02-16T01:55:25.146Z,76.72
2023-02-16T01:58:02.148Z,72.55
2023-02-16T02:00:56.952Z,72.92
2023-02-16T02:03:54.228Z,73.57
2023-02-16T02:06:31.335Z,76.62
2023-02-16T02:09:16.929Z,75.60
2023-02-16T02:11:54.206Z,76.82
2023-02-16T02:14:30.298Z,80.72
2023-02-16T02:17:06.955Z,79.27
2023-02-16T02:19:57.251Z,79.20
2023-02-16T02:23:01.057Z,79.32
2023-02-16T02:26:00.690Z,80.35
2023-02-16T02:28:50.834Z,81.05
2023-02-16T02:31:53.516Z,78.02
2023-02-16T02:34:37.492Z,79.15
2023-02-16T02:40:16.870Z,79.00
2023-02-16T02:43:16.248Z,78.15
2023-02-16T02:46:01.755Z,76.65
2023-02-16T02:51:24.855Z,74.50
2023-02-16T02:54:37.377Z,74.07
2023-02-16T02:57:31.500Z,77.22
2023-02-16T03:00:32.357Z,77.37
2023-02-16T03:03:06.035Z,75.17
2023-02-16T03:05:39.249Z,73.67
2023-02-16T03:08:17.534Z,77.67
2023-02-16T03:11:10.274Z,77.60
2023-02-16T03:13:44.960Z,78.20
2023-02-16T03:16:21.827Z,75.70
2023-02-16T03:19:11.102Z,74.12
2023-02-16T03:22:00.840Z,73.75
2023-02-16T03:24:52.120Z,75.03
2023-02-16T03:27:44.769Z,73.52
2023-02-16T03:30:19.401Z,72.12
2023-02-16T03:32:52.150Z,72.37
2023-02-16T03:35:24.190Z,72.32
2023-02-16T03:37:58.050Z,75.17
2023-02-16T03:40:33.363Z,72.45
2023-02-16T03:43:09.075Z,71.57
2023-02-16T03:45:43.153Z,69.65
2023-02-16T03:48:15.295Z,70.32
2023-02-16T03:50:48.695Z,69.45
2023-02-16T03:53:21.029Z,70.78
2023-02-16T03:55:52.110Z,68.92
2023-02-16T03:58:26.634Z,69.65
2023-02-16T04:01:01.041Z,70.95
2023-02-16T04:03:32.898Z,67.85
2023-02-16T04:06:05.649Z,75.47
2023-02-16T04:08:38.074Z,77.55
2023-02-16T04:11:26.888Z,73.70
2023-02-16T04:13:58.381Z,71.53
2023-02-16T04:16:29.785Z,69.58
2023-02-16T04:19:02.828Z,67.78
2023-02-16T04:21:35.040Z,67.60
2023-02-16T04:24:15.458Z,67.08
2023-02-16T04:26:49.771Z,67.42
2023-02-16T04:29:21.986Z,66.85
2023-02-16T04:31:53.867Z,66.92
2023-02-16T04:34:27.253Z,64.37
2023-02-16T04:37:01.415Z,48.52
2023-02-16T04:39:34.297Z,65.78
2023-02-16T04:42:07.385Z,66.87
2023-02-16T04:44:40.756Z,66.37
2023-02-16T04:47:15.635Z,64.87
2023-02-16T04:49:49.236Z,63.13
2023-02-16T04:52:21.743Z,60.08
2023-02-16T04:54:55.882Z,61.42
2023-02-16T04:57:27.378Z,61.80
2023-02-16T05:00:02.203Z,61.23
2023-02-16T05:02:36.810Z,59.05
2023-02-16T05:05:09.298Z,61.25
2023-02-16T05:07:42.761Z,58.58
2023-02-16T05:10:16.258Z,58.33
2023-02-16T05:13:05.579Z,57.90
2023-02-16T05:15:37.621Z,55.10
2023-02-16T05:18:08.813Z,57.50
2023-02-16T05:20:58.139Z,56.20
2023-02-16T05:23:28.845Z,56.55
2023-02-16T05:26:00.581Z,55.38
2023-02-16T05:28:33.580Z,55.12
2023-02-16T05:31:05.582Z,55.90
2023-02-16T05:33:36.800Z,54.90
2023-02-16T05:36:08.237Z,54.73
2023-02-16T05:38:39.499Z,53.33
2023-02-16T05:41:10.917Z,53.58
2023-02-16T05:43:43.460Z,52.75
2023-02-16T05:46:18.073Z,50.95
2023-02-16T05:51:21.307Z,50.98
2023-02-16T05:53:52.281Z,53.68
2023-02-16T05:56:26.513Z,52.17
2023-02-16T05:59:00.014Z,50.98
2023-02-16T06:01:30.738Z,52.85
2023-02-16T06:04:02.883Z,52.93
2023-02-16T06:06:36.606Z,50.35
2023-02-16T06:09:09.246Z,49.93
2023-02-16T06:11:41.257Z,51.88
2023-02-16T06:14:20.444Z,50.88
2023-02-16T06:16:52.435Z,50.78
2023-02-16T06:19:26.029Z,47.85
2023-02-16T06:22:02.480Z,49.95
2023-02-16T06:24:33.464Z,49.48
2023-02-16T06:27:08.244Z,47.73
2023-02-16T06:29:39.365Z,49.30
2023-02-16T06:32:12.790Z,48.00
2023-02-16T06:34:43.827Z,48.63
2023-02-16T06:37:16.094Z,48.45
2023-02-16T06:39:46.777Z,48.73
2023-02-16T06:42:20.531Z,48.92
2023-02-16T06:44:53.288Z,49.05
2023-02-16T06:47:25.620Z,49.08
2023-02-16T06:49:57.009Z,49.08
2023-02-16T06:52:30.131Z,48.87
2023-02-16T06:55:06.909Z,47.43
2023-02-16T06:57:40.142Z,47.65
2023-02-16T07:00:11.493Z,46.83
2023-02-16T07:02:44.034Z,47.93
2023-02-16T07:05:15.979Z,47.90
2023-02-16T07:07:47.860Z,46.30
2023-02-16T07:10:21.760Z,46.63
2023-02-16T07:12:53.436Z,45.78
2023-02-16T07:15:27.116Z,45.17
2023-02-16T07:17:59.222Z,46.83
2023-02-16T07:20:31.641Z,44.33
2023-02-16T07:23:03.902Z,46.80
2023-02-16T07:25:37.269Z,43.15
2023-02-16T07:28:08.828Z,45.40
2023-02-16T07:30:40.946Z,45.23
2023-02-16T07:33:11.688Z,47.62
2023-02-16T07:35:43.098Z,46.02
2023-02-16T07:38:13.988Z,46.83
2023-02-16T07:40:44.645Z,45.30
2023-02-16T07:43:15.300Z,45.35
2023-02-16T07:45:46.265Z,45.43
2023-02-16T07:48:17.209Z,47.13
2023-02-16T07:50:48.084Z,46.42
2023-02-16T07:53:19.151Z,46.02
2023-02-16T07:55:49.794Z,45.58
2023-02-16T07:58:30.103Z,46.08
2023-02-16T08:01:15.936Z,45.38
2023-02-16T08:03:46.996Z,45.92
2023-02-16T08:06:18.844Z,43.48
2023-02-16T08:08:50.789Z,42.73
2023-02-16T08:11:24.607Z,44.10
2023-02-16T08:13:55.862Z,45.23
2023-02-16T08:16:29.300Z,44.05
2023-02-16T08:19:01.252Z,43.35
2023-02-16T08:21:34.280Z,43.98
2023-02-16T08:24:07.450Z,44.60
2023-02-16T08:26:40.962Z,43.60
2023-02-16T08:29:14.166Z,43.57
2023-02-16T08:31:47.605Z,43.92
2023-02-16T08:34:21.493Z,41.83
2023-02-16T08:36:57.442Z,42.62
2023-02-16T08:39:31.599Z,43.78
2023-02-16T08:42:03.935Z,43.60
2023-02-16T08:44:34.644Z,44.25
2023-02-16T08:47:05.567Z,43.28
2023-02-16T08:49:36.305Z,44.03
2023-02-16T08:52:07.581Z,42.27
2023-02-16T08:54:39.097Z,42.30
2023-02-16T08:57:09.743Z,41.55
2023-02-16T08:59:40.540Z,40.58
2023-02-16T09:02:12.517Z,40.20
2023-02-16T09:04:47.795Z,39.80
2023-02-16T09:07:18.050Z,40.88
2023-02-16T09:09:50.043Z,39.78
2023-02-16T09:12:22.370Z,36.35
2023-02-16T09:14:57.887Z,36.88
2023-02-16T09:17:31.279Z,36.77
2023-02-16T09:20:02.279Z,38.02
2023-02-16T09:22:33.400Z,37.58
2023-02-16T09:25:04.457Z,35.10
2023-02-16T09:27:35.596Z,34.40
2023-02-16T09:30:07.045Z,36.23
2023-02-16T09:32:37.910Z,35.17
2023-02-16T09:35:09.702Z,34.58
2023-02-16T09:37:40.729Z,33.92
2023-02-16T09:40:15.206Z,34.55
2023-02-16T09:42:54.986Z,33.30
2023-02-16T09:45:27.137Z,32.38
2023-02-16T09:47:59.553Z,30.90
2023-02-16T09:50:52.523Z,32.03
2023-02-16T09:53:18.583Z,32.00
2023-02-16T09:56:03.067Z,33.70
2023-02-16T09:58:53.196Z,31.02
2023-02-16T10:01:49.506Z,31.97
2023-02-16T10:07:22.406Z,29.75
2023-02-16T10:09:55.505Z,32.40
2023-02-16T10:12:28.953Z,31.85
2023-02-16T10:15:02.709Z,33.45
2023-02-16T10:17:37.932Z,32.33
2023-02-16T10:20:19.805Z,32.10
2023-02-16T10:23:05.659Z,32.55
2023-02-16T10:25:53.157Z,33.30
2023-02-16T10:28:53.172Z,31.73
2023-02-16T10:31:42.892Z,31.15
2023-02-16T10:37:19.819Z,31.12
2023-02-16T10:39:53.681Z,31.33
2023-02-16T10:42:41.214Z,31.17
2023-02-16T10:45:34.348Z,31.25
2023-02-16T10:48:05.760Z,30.88
2023-02-16T10:50:47.055Z,31.82
2023-02-16T10:53:29.292Z,32.60
2023-02-16T10:56:00.945Z,31.33
2023-02-16T10:58:34.468Z,31.60
2023-02-16T11:01:10.849Z,30.43
2023-02-16T11:03:47.190Z,31.02
2023-02-16T11:06:20.686Z,30.88
2023-02-16T11:08:58.114Z,30.82
2023-02-16T11:11:31.654Z,30.57
2023-02-16T11:14:09.203Z,31.33
2023-02-16T11:16:41.796Z,32.42
2023-02-16T11:19:21.208Z,31.37
2023-02-16T11:21:58.635Z,30.48
2023-02-16T11:24:32.358Z,31.52
2023-02-16T11:27:08.330Z,30.15
2023-02-16T11:29:40.346Z,32.98
2023-02-16T11:32:14.100Z,33.85
2023-02-16T11:34:50.459Z,33.30
2023-02-16T11:37:31.087Z,33.10
2023-02-16T11:40:10.920Z,34.67
2023-02-16T11:42:50.400Z,33.83
2023-02-16T11:45:23.858Z,34.08
2023-02-16T11:47:57.416Z,31.45
2023-02-16T11:50:31.120Z,34.13
2023-02-16T11:53:14.990Z,31.68
2023-02-16T11:55:50.546Z,36.90
2023-02-16T11:58:26.789Z,34.60
2023-02-16T12:01:08.658Z,35.92
2023-02-16T12:04:14.230Z,38.85
2023-02-16T12:07:04.746Z,36.98
2023-02-16T12:09:56.443Z,37.48
2023-02-16T12:12:46.680Z,36.03
2023-02-16T12:15:25.930Z,36.95
2023-02-16T12:18:05.359Z,38.55
2023-02-16T12:20:44.796Z,37.28
2023-02-16T12:23:36.450Z,37.50
2023-02-16T12:26:32.669Z,35.25
2023-02-16T12:31:52.299Z,35.78
2023-02-16T12:34:43.630Z,35.50
2023-02-16T12:37:26.063Z,35.17
2023-02-16T12:40:22.161Z,34.18
2023-02-16T12:43:16.819Z,36.17
2023-02-16T12:45:48.417Z,34.20
2023-02-16T12:48:27.764Z,36.60
2023-02-16T12:51:00.363Z,33.63
2023-02-16T12:53:36.740Z,34.30
2023-02-16T12:56:12.365Z,31.75
2023-02-16T12:58:45.801Z,30.72
2023-02-16T13:01:25.500Z,27.07
2023-02-16T13:04:20.392Z,32.05
2023-02-16T13:07:18.349Z,33.10
2023-02-16T13:10:02.213Z,34.55
2023-02-16T13:12:41.538Z,32.55
2023-02-16T13:15:17.711Z,32.65
2023-02-16T13:17:56.653Z,32.65
2023-02-16T13:20:28.341Z,33.25
2023-02-16T13:23:15.544Z,33.67
2023-02-16T13:25:53.672Z,31.65
2023-02-16T13:28:51.882Z,32.95
2023-02-16T13:31:48.244Z,33.25
2023-02-16T13:34:38.517Z,32.90
2023-02-16T13:37:25.385Z,33.40
2023-02-16T13:40:01.765Z,32.05
2023-02-16T13:43:05.410Z,32.55
2023-02-16T13:45:42.469Z,32.67
2023-02-16T13:50:48.649Z,33.08
2023-02-16T13:53:22.279Z,34.85
2023-02-16T13:56:12.257Z,36.13
2023-02-16T13:58:42.823Z,33.80
2023-02-16T14:01:42.294Z,36.55
2023-02-16T14:04:17.007Z,37.42
2023-02-16T14:07:08.183Z,35.90
2023-02-16T14:09:42.319Z,33.73
2023-02-16T14:12:21.735Z,33.98
2023-02-16T14:14:58.356Z,33.15
2023-02-16T14:17:34.970Z,32.67
2023-02-16T14:20:17.361Z,33.98
2023-02-16T14:22:55.984Z,34.70
2023-02-16T14:25:30.906Z,32.83
2023-02-16T14:28:07.857Z,33.02
2023-02-16T14:30:50.151Z,33.45
2023-02-16T14:33:23.695Z,31.25
2023-02-16T14:36:07.211Z,33.15
2023-02-16T14:38:47.788Z,32.03
2023-02-16T14:41:30.757Z,33.23
2023-02-16T14:44:09.974Z,33.28
2023-02-16T14:47:00.952Z,34.27
2023-02-16T14:49:52.280Z,32.58
2023-02-16T14:52:53.400Z,33.30
2023-02-16T14:55:29.969Z,34.95
2023-02-16T14:58:38.254Z,42.45
2023-02-16T15:01:14.514Z,41.28
2023-02-16T15:03:56.553Z,39.78
2023-02-16T15:06:30.261Z,42.67
2023-02-16T15:09:04.158Z,43.17
2023-02-16T15:11:42.099Z,42.50
2023-02-16T15:14:14.436Z,44.73
2023-02-16T15:16:45.959Z,44.98
2023-02-16T15:19:21.674Z,42.67
2023-02-16T15:22:11.272Z,42.15
2023-02-16T15:24:43.194Z,38.75
2023-02-16T15:27:26.092Z,38.60
2023-02-16T15:30:09.716Z,38.17
2023-02-16T15:32:41.354Z,39.05
2023-02-16T15:35:14.498Z,41.83
2023-02-16T15:37:45.050Z,39.55
2023-02-16T15:40:25.435Z,39.33
2023-02-16T15:42:52.023Z,35.68
2023-02-16T15:45:30.786Z,34.85
2023-02-16T15:48:37.055Z,35.43
2023-02-16T15:51:11.342Z,35.20
2023-02-16T15:53:59.916Z,35.75
2023-02-16T15:56:51.509Z,37.25
2023-02-16T15:59:47.906Z,36.00
2023-02-16T16:02:24.506Z,35.23
2023-02-16T16:05:01.326Z,36.58
2023-02-16T16:07:35.890Z,36.25
2023-02-16T16:10:12.306Z,37.42
2023-02-16T16:12:46.730Z,35.75
2023-02-16T16:15:24.100Z,35.65
2023-02-16T16:17:57.660Z,35.90
2023-02-16T16:20:34.972Z,35.60
2023-02-16T16:23:17.727Z,35.65
2023-02-16T16:25:51.934Z,35.15
2023-02-16T16:28:32.318Z,35.68
2023-02-16T16:31:11.740Z,34.60
2023-02-16T16:34:03.908Z,34.63
2023-02-16T16:36:47.391Z,36.15
2023-02-16T16:39:22.330Z,35.58
2023-02-16T16:42:18.490Z,37.10
2023-02-16T16:45:08.020Z,37.08
2023-02-16T16:47:41.568Z,38.00
2023-02-16T16:50:15.787Z,39.98
2023-02-16T16:52:52.299Z,39.90
2023-02-16T16:55:27.084Z,41.88
2023-02-16T16:58:01.188Z,41.58
2023-02-16T17:03:07.964Z,42.73
2023-02-16T17:05:40.872Z,42.20
2023-02-16T17:08:13.789Z,45.10
2023-02-16T17:10:44.895Z,46.77
2023-02-16T17:13:19.362Z,48.02
2023-02-16T17:15:55.635Z,49.27
2023-02-16T17:18:26.214Z,49.80
2023-02-16T17:20:57.611Z,44.50
2023-02-16T17:23:28.182Z,42.58
2023-02-16T17:26:02.016Z,43.23
2023-02-16T17:28:36.994Z,42.10
2023-02-16T17:31:09.723Z,44.08
2023-02-16T17:33:41.950Z,41.85
2023-02-16T17:36:15.678Z,39.92
2023-02-16T17:38:47.249Z,43.05
2023-02-16T17:41:27.835Z,42.15
2023-02-16T17:43:59.281Z,42.75
2023-02-16T17:46:33.044Z,46.15
2023-02-16T17:51:36.641Z,47.17
2023-02-16T17:54:11.896Z,45.75
2023-02-16T17:56:44.938Z,45.40
2023-02-16T17:59:16.495Z,49.58
2023-02-16T18:01:48.550Z,46.35
2023-02-16T18:04:19.951Z,47.65
2023-02-16T18:06:51.779Z,47.43
2023-02-16T18:09:23.998Z,48.52
2023-02-16T18:11:54.566Z,48.90
2023-02-16T18:14:25.251Z,45.45
2023-02-16T18:16:58.538Z,51.20
2023-02-16T18:19:32.084Z,50.08
2023-02-16T18:22:03.816Z,52.17
2023-02-16T18:24:36.064Z,51.92
2023-02-16T18:27:07.221Z,53.98
2023-02-16T18:29:38.083Z,54.48
2023-02-16T18:32:09.910Z,54.08
2023-02-16T18:34:40.542Z,53.68
2023-02-16T18:37:11.058Z,54.13
2023-02-16T18:39:43.014Z,52.62
2023-02-16T18:42:13.788Z,53.02
2023-02-16T18:44:48.495Z,52.30
2023-02-16T18:47:19.755Z,54.18
2023-02-16T18:49:52.819Z,52.65
2023-02-16T18:52:23.937Z,53.92
2023-02-16T18:54:55.308Z,50.28
2023-02-16T18:57:28.944Z,51.28
2023-02-16T19:00:00.847Z,50.93
2023-02-16T19:02:31.951Z,50.12
2023-02-16T19:05:03.672Z,49.25
2023-02-16T19:07:35.451Z,45.92
2023-02-16T19:10:10.092Z,48.00
2023-02-16T19:12:42.283Z,47.17
2023-02-16T19:15:14.686Z,48.50
2023-02-16T19:17:46.139Z,49.73
2023-02-16T19:20:19.219Z,51.23
2023-02-16T19:22:51.774Z,52.67
2023-02-16T19:25:24.055Z,50.45
2023-02-16T19:27:56.110Z,47.27
2023-02-16T19:30:30.099Z,49.05
2023-02-16T19:33:04.361Z,47.88
2023-02-16T19:35:39.063Z,47.13
2023-02-16T19:38:11.092Z,48.80
2023-02-16T19:40:46.271Z,48.63
2023-02-16T19:43:18.360Z,44.63
2023-02-16T19:45:52.383Z,45.55
2023-02-16T19:48:25.021Z,47.60
2023-02-16T19:51:00.963Z,46.30
2023-02-16T19:53:33.031Z,46.00
2023-02-16T19:56:07.972Z,43.40
2023-02-16T19:58:39.082Z,40.58
2023-02-16T20:01:12.493Z,40.90
2023-02-16T20:03:44.867Z,39.42
2023-02-16T20:06:18.397Z,41.05
2023-02-16T20:08:51.020Z,39.38
2023-02-16T20:11:24.188Z,45.17
2023-02-16T20:13:57.213Z,42.03
2023-02-16T20:16:29.715Z,41.00
2023-02-16T20:19:01.444Z,40.25
2023-02-16T20:21:33.175Z,40.43
2023-02-16T20:24:07.156Z,40.03
2023-02-16T20:26:41.922Z,37.60
2023-02-16T20:29:17.358Z,39.80
2023-02-16T20:31:54.337Z,38.45
2023-02-16T20:34:28.358Z,36.85
2023-02-16T20:36:59.800Z,38.00
2023-02-16T20:39:31.538Z,38.55
2023-02-16T20:42:05.124Z,41.15
2023-02-16T20:44:36.438Z,37.78
2023-02-16T20:47:10.702Z,37.83
2023-02-16T20:49:42.589Z,37.33
2023-02-16T20:52:13.921Z,36.85
2023-02-16T20:54:45.159Z,37.17
2023-02-16T20:57:26.502Z,37.70
2023-02-16T20:59:49.353Z,37.17
2023-02-16T21:02:22.013Z,36.00
2023-02-16T21:04:55.907Z,39.90
2023-02-16T21:07:26.610Z,39.15
2023-02-16T21:09:57.597Z,39.13
2023-02-16T21:12:28.466Z,40.58
2023-02-16T21:14:59.115Z,40.65
2023-02-16T21:17:29.819Z,41.63
2023-02-16T21:20:00.552Z,42.05
2023-02-16T21:22:31.228Z,41.30
2023-02-16T21:25:02.144Z,40.60
2023-02-16T21:27:32.964Z,39.65
2023-02-16T21:30:03.786Z,39.18
2023-02-16T21:32:34.742Z,36.73
2023-02-16T21:35:05.575Z,38.60
2023-02-16T21:37:38.980Z,37.20
2023-02-16T21:40:29.199Z,35.75
2023-02-16T21:43:00.434Z,34.10
2023-02-16T21:45:32.595Z,32.67
2023-02-16T21:48:21.537Z,30.50
2023-02-16T21:50:52.347Z,30.25
2023-02-16T21:53:23.593Z,29.18
2023-02-16T21:56:12.452Z,30.23
2023-02-16T21:58:43.787Z,29.70
2023-02-16T22:01:15.258Z,29.20
2023-02-16T22:03:46.053Z,28.30
2023-02-16T22:06:17.009Z,29.42
2023-02-16T22:08:47.908Z,28.42
2023-02-16T22:11:18.826Z,27.17
2023-02-16T22:13:53.016Z,29.82
2023-02-16T22:16:24.190Z,28.60
2023-02-16T22:19:05.013Z,28.23
2023-02-16T22:21:38.104Z,27.07
2023-02-16T22:24:09.692Z,28.32
2023-02-16T22:26:40.541Z,27.90
2023-02-16T22:29:12.045Z,28.45
2023-02-16T22:31:49.191Z,27.05
2023-02-16T22:34:24.602Z,27.80
2023-02-16T22:39:31.152Z,27.15
2023-02-16T22:42:00.308Z,29.10
2023-02-16T22:44:31.023Z,28.85
2023-02-16T22:47:02.642Z,29.52
2023-02-16T22:49:36.470Z,30.37
2023-02-16T22:52:11.629Z,30.25
2023-02-16T22:54:42.172Z,31.12
2023-02-16T22:57:12.801Z,30.57
2023-02-16T22:59:44.519Z,29.50
2023-02-16T23:02:15.255Z,28.47
2023-02-16T23:04:47.476Z,29.57
2023-02-16T23:07:19.316Z,28.40
2023-02-16T23:09:49.931Z,27.20
2023-02-16T23:12:20.673Z,28.15
2023-02-16T23:14:56.825Z,28.42
2023-02-16T23:17:28.235Z,27.77
2023-02-16T23:19:59.011Z,27.70
2023-02-16T23:22:31.963Z,27.48
2023-02-16T23:25:26.241Z,27.73
2023-02-16T23:28:12.712Z,27.25
2023-02-16T23:30:52.935Z,26.57
2023-02-16T23:33:24.039Z,28.02
2023-02-16T23:35:55.118Z,26.82
2023-02-16T23:38:26.011Z,27.07
2023-02-16T23:41:05.037Z,27.82
2023-02-16T23:43:36.006Z,27.50
2023-02-16T23:46:07.535Z,29.30
2023-02-16T23:48:41.038Z,29.48
2023-02-16T23:51:13.344Z,28.27
2023-02-16T23:53:43.995Z,28.32
2023-02-16T23:56:23.851Z,29.48
2023-02-16T23:59:00.230Z,31.33
